createdAt,value
2023-03-13T00:01:22.099Z,2.10
2023-03-13T00:03:50.008Z,2.10
2023-03-13T00:06:18.050Z,2.10
2023-03-13T00:08:46.039Z,2.70
2023-03-13T00:11:15.523Z,2.30
2023-03-13T00:13:44.475Z,1.60
2023-03-13T00:16:14.965Z,2.20
2023-03-13T00:18:47.513Z,1.90
2023-03-13T00:21:16.094Z,2.30
2023-03-13T00:23:44.222Z,2.30
2023-03-13T00:26:14.407Z,2.30
2023-03-13T00:28:45.617Z,2.20
2023-03-13T00:31:23.233Z,2.30
2023-03-13T00:33:53.608Z,2.30
2023-03-13T00:36:24.695Z,2.40
2023-03-13T00:38:54.038Z,2.60
2023-03-13T00:41:24.520Z,2.40
2023-03-13T00:43:53.344Z,2.20
2023-03-13T00:46:24.147Z,2.70
2023-03-13T00:48:52.980Z,2.40
2023-03-13T00:51:23.884Z,2.30
2023-03-13T00:53:51.872Z,3.00
2023-03-13T00:56:20.920Z,2.60
2023-03-13T00:58:50.168Z,2.90
2023-03-13T01:01:21.175Z,2.40
2023-03-13T01:04:01.273Z,3.40
2023-03-13T01:06:32.790Z,2.40
2023-03-13T01:09:01.503Z,2.90
2023-03-13T01:11:32.426Z,3.30
2023-03-13T01:14:03.706Z,3.20
2023-03-13T01:16:33.480Z,2.80
2023-03-13T01:19:04.355Z,2.90
2023-03-13T01:21:32.346Z,2.50
2023-03-13T01:24:00.115Z,3.00
2023-03-13T01:26:28.437Z,3.90
2023-03-13T01:28:56.969Z,2.30
2023-03-13T01:31:26.647Z,2.80
2023-03-13T01:33:56.779Z,2.60
2023-03-13T01:36:25.490Z,3.70
2023-03-13T01:38:55.877Z,4.90
2023-03-13T01:41:24.815Z,5.10
2023-03-13T01:43:53.238Z,3.80
2023-03-13T01:46:24.917Z,3.50
2023-03-13T01:49:28.096Z,4.90
2023-03-13T01:52:26.317Z,4.60
2023-03-13T01:55:11.980Z,4.20
2023-03-13T01:57:44.554Z,4.20
2023-03-13T02:00:23.853Z,4.70
2023-03-13T02:02:55.389Z,3.70
2023-03-13T02:05:27.030Z,4.10
2023-03-13T02:08:04.405Z,5.70
2023-03-13T02:10:37.235Z,4.30
2023-03-13T02:13:04.944Z,4.80
2023-03-13T02:15:34.278Z,5.20
2023-03-13T02:18:02.571Z,4.40
2023-03-13T02:20:30.696Z,3.80
2023-03-13T02:23:20.274Z,4.10
2023-03-13T02:25:51.275Z,3.80
2023-03-13T02:28:33.429Z,3.70
2023-03-13T02:31:02.248Z,5.30
2023-03-13T02:33:35.773Z,3.90
2023-03-13T02:36:05.364Z,4.20
2023-03-13T02:38:39.305Z,2.90
2023-03-13T02:41:08.612Z,4.60
2023-03-13T02:43:38.347Z,4.50
2023-03-13T02:46:13.095Z,4.20
2023-03-13T02:48:46.131Z,4.10
2023-03-13T02:51:27.402Z,4.90
2023-03-13T02:53:59.396Z,4.50
2023-03-13T02:56:32.193Z,4.00
2023-03-13T02:59:00.521Z,3.80
2023-03-13T03:01:28.312Z,4.10
2023-03-13T03:03:56.052Z,4.80
2023-03-13T03:06:23.776Z,4.00
2023-03-13T03:08:51.772Z,3.30
2023-03-13T03:11:19.625Z,4.10
2023-03-13T03:13:49.946Z,5.60
2023-03-13T03:16:20.849Z,4.30
2023-03-13T03:18:48.726Z,3.60
2023-03-13T03:21:16.862Z,3.40
2023-03-13T03:23:44.590Z,4.10
2023-03-13T03:26:12.371Z,5.00
2023-03-13T03:28:40.214Z,3.80
2023-03-13T03:31:13.838Z,4.10
2023-03-13T03:33:42.651Z,4.20
2023-03-13T03:36:14.858Z,3.30
2023-03-13T03:38:44.130Z,2.70
2023-03-13T03:41:16.887Z,3.40
2023-03-13T03:43:45.534Z,3.40
2023-03-13T03:46:15.027Z,3.60
2023-03-13T03:48:42.874Z,3.00
2023-03-13T03:51:11.752Z,3.80
2023-03-13T03:56:08.960Z,2.90
2023-03-13T03:58:39.311Z,4.00
2023-03-13T04:01:12.540Z,3.40
2023-03-13T04:03:40.490Z,3.30
2023-03-13T04:06:09.439Z,3.50
2023-03-13T04:08:37.161Z,3.80
2023-03-13T04:11:05.497Z,3.60
2023-03-13T04:13:37.666Z,4.10
2023-03-13T04:16:09.697Z,4.10
2023-03-13T04:18:37.865Z,2.80
2023-03-13T04:21:06.482Z,3.90
2023-03-13T04:23:47.381Z,3.80
2023-03-13T04:26:15.888Z,4.10
2023-03-13T04:28:44.237Z,4.00
2023-03-13T04:31:16.128Z,3.80
2023-03-13T04:34:09.869Z,4.10
2023-03-13T04:36:53.693Z,3.50
2023-03-13T04:39:42.098Z,3.10
2023-03-13T04:42:28.603Z,3.00
2023-03-13T04:45:12.036Z,3.70
2023-03-13T04:47:57.983Z,4.10
2023-03-13T04:51:01.046Z,4.20
2023-03-13T04:54:01.280Z,3.70
2023-03-13T04:56:43.957Z,4.50
2023-03-13T04:59:32.069Z,4.40
2023-03-13T05:02:18.722Z,3.90
2023-03-13T05:05:24.971Z,4.00
2023-03-13T05:08:02.612Z,3.50
2023-03-13T05:13:44.218Z,3.50
2023-03-13T05:16:29.951Z,3.30
2023-03-13T05:19:10.750Z,2.90
2023-03-13T05:21:50.338Z,2.90
2023-03-13T05:24:42.031Z,4.20
2023-03-13T05:30:30.873Z,2.50
2023-03-13T05:33:13.819Z,4.10
2023-03-13T05:36:01.845Z,3.10
2023-03-13T05:38:56.111Z,3.80
2023-03-13T05:41:35.351Z,4.10
2023-03-13T05:44:38.699Z,4.00
2023-03-13T05:47:18.672Z,4.50
2023-03-13T05:50:19.117Z,4.90
2023-03-13T05:53:05.558Z,3.40
2023-03-13T05:55:55.290Z,5.00
2023-03-13T05:58:43.219Z,3.70
2023-03-13T06:01:31.312Z,3.30
2023-03-13T06:04:12.990Z,3.30
2023-03-13T06:06:41.635Z,4.50
2023-03-13T06:09:11.723Z,4.80
2023-03-13T06:11:39.881Z,4.60
2023-03-13T06:14:07.621Z,4.40
2023-03-13T06:16:42.566Z,4.40
2023-03-13T06:19:20.161Z,3.10
2023-03-13T06:21:48.120Z,4.40
2023-03-13T06:24:16.012Z,4.60
2023-03-13T06:26:43.866Z,4.80
2023-03-13T06:29:11.854Z,4.40
2023-03-13T06:31:39.790Z,3.90
2023-03-13T06:34:10.936Z,4.30
2023-03-13T06:36:38.731Z,4.00
2023-03-13T06:39:06.570Z,4.70
2023-03-13T06:41:34.363Z,4.90
2023-03-13T06:44:02.318Z,5.60
2023-03-13T06:46:30.277Z,3.10
2023-03-13T06:48:58.894Z,3.80
2023-03-13T06:51:26.720Z,4.20
2023-03-13T06:53:54.435Z,4.10
2023-03-13T06:56:22.173Z,4.90
2023-03-13T06:58:50.658Z,3.70
2023-03-13T07:01:18.964Z,4.00
2023-03-13T07:03:48.856Z,4.10
2023-03-13T07:06:17.063Z,4.70
2023-03-13T07:08:45.087Z,3.60
2023-03-13T07:11:14.864Z,3.40
2023-03-13T07:13:42.840Z,4.10
2023-03-13T07:16:12.827Z,4.10
2023-03-13T07:18:44.777Z,3.70
2023-03-13T07:21:13.373Z,3.50
2023-03-13T07:23:41.469Z,3.80
2023-03-13T07:26:15.269Z,3.80
2023-03-13T07:28:44.245Z,3.80
2023-03-13T07:31:20.673Z,3.30
2023-03-13T07:33:48.513Z,4.40
2023-03-13T07:36:16.679Z,4.00
2023-03-13T07:38:51.230Z,3.60
2023-03-13T07:41:20.412Z,3.60
2023-03-13T07:43:48.396Z,3.60
2023-03-13T07:46:21.816Z,3.80
2023-03-13T07:48:50.250Z,3.40
2023-03-13T07:51:30.294Z,3.60
2023-03-13T07:54:04.829Z,3.60
2023-03-13T07:56:32.523Z,4.30
2023-03-13T07:59:00.235Z,2.50
2023-03-13T08:01:30.687Z,4.10
2023-03-13T08:04:01.680Z,3.40
2023-03-13T08:06:35.662Z,3.50
2023-03-13T08:09:04.188Z,2.60
2023-03-13T08:11:31.890Z,3.70
2023-03-13T08:13:59.864Z,3.40
2023-03-13T08:16:30.178Z,2.40
2023-03-13T08:18:59.015Z,3.30
2023-03-13T08:21:28.971Z,3.20
2023-03-13T08:23:59.319Z,3.10
2023-03-13T08:26:29.473Z,3.60
2023-03-13T08:29:02.833Z,3.50
2023-03-13T08:31:57.083Z,3.40
2023-03-13T08:36:52.965Z,3.50
2023-03-13T08:39:21.151Z,2.90
2023-03-13T08:41:48.958Z,3.20
2023-03-13T08:44:18.856Z,2.60
2023-03-13T08:46:49.096Z,3.30
2023-03-13T08:49:17.894Z,2.70
2023-03-13T08:51:46.627Z,3.50
2023-03-13T08:54:14.534Z,3.40
2023-03-13T08:56:43.636Z,2.80
2023-03-13T08:59:11.431Z,2.80
2023-03-13T09:01:39.222Z,2.20
2023-03-13T09:04:08.096Z,3.10
2023-03-13T09:06:38.054Z,2.00
2023-03-13T09:09:07.523Z,2.50
2023-03-13T09:14:05.850Z,2.20
2023-03-13T09:16:34.941Z,3.00
2023-03-13T09:19:02.870Z,2.60
2023-03-13T09:21:34.016Z,2.90
2023-03-13T09:24:02.375Z,2.70
2023-03-13T09:26:30.875Z,3.00
2023-03-13T09:28:58.852Z,2.20
2023-03-13T09:31:30.226Z,3.30
2023-03-13T09:33:59.331Z,3.00
2023-03-13T09:36:28.003Z,2.10
2023-03-13T09:38:58.238Z,2.50
2023-03-13T09:41:36.207Z,2.20
2023-03-13T09:44:20.806Z,3.00
2023-03-13T09:46:54.203Z,2.70
2023-03-13T09:49:39.949Z,2.30
2023-03-13T09:52:10.420Z,2.60
2023-03-13T09:54:41.743Z,2.60
2023-03-13T09:57:47.794Z,2.50
2023-03-13T10:00:21.631Z,2.90
2023-03-13T10:02:57.424Z,2.70
2023-03-13T10:05:27.939Z,2.20
2023-03-13T10:08:12.910Z,2.40
2023-03-13T10:10:53.859Z,2.20
2023-03-13T10:13:40.551Z,2.70
2023-03-13T10:16:15.688Z,1.90
2023-03-13T10:18:49.142Z,2.50
2023-03-13T10:21:22.295Z,2.20
2023-03-13T10:24:22.385Z,2.10
2023-03-13T10:26:50.129Z,3.20
2023-03-13T10:29:31.567Z,4.00
2023-03-13T10:32:03.348Z,5.20
2023-03-13T10:34:46.124Z,3.80
2023-03-13T10:37:16.187Z,5.50
2023-03-13T10:39:43.986Z,7.00
2023-03-13T10:42:24.321Z,7.40
2023-03-13T10:44:57.917Z,4.90
2023-03-13T10:47:25.925Z,2.90
2023-03-13T10:49:58.013Z,2.90
2023-03-13T10:52:33.347Z,3.40
2023-03-13T10:55:04.668Z,3.10
2023-03-13T10:57:35.228Z,2.50
2023-03-13T11:00:25.354Z,2.20
2023-03-13T11:02:54.481Z,2.50
2023-03-13T11:05:25.354Z,2.50
2023-03-13T11:07:53.674Z,2.70
2023-03-13T11:10:31.191Z,2.80
2023-03-13T11:12:59.199Z,2.10
2023-03-13T11:15:51.918Z,3.00
2023-03-13T11:18:42.122Z,2.20
2023-03-13T11:21:21.114Z,2.70
2023-03-13T11:24:02.668Z,3.20
2023-03-13T11:26:52.392Z,2.40
2023-03-13T11:30:08.186Z,2.50
2023-03-13T11:32:43.352Z,2.30
2023-03-13T11:35:21.669Z,2.40
2023-03-13T11:37:52.483Z,2.70
2023-03-13T11:40:36.021Z,2.10
2023-03-13T11:43:24.581Z,3.10
2023-03-13T11:46:12.626Z,2.60
2023-03-13T11:48:43.424Z,2.00
2023-03-13T11:51:20.976Z,2.10
2023-03-13T11:54:23.217Z,2.90
2023-03-13T11:56:56.833Z,2.70
2023-03-13T12:00:01.331Z,2.50
2023-03-13T12:02:57.701Z,2.50
2023-03-13T12:05:28.830Z,2.30
2023-03-13T12:08:07.568Z,2.30
2023-03-13T12:10:44.244Z,2.20
2023-03-13T12:13:17.729Z,1.90
2023-03-13T12:15:53.629Z,2.20
2023-03-13T12:18:30.098Z,2.30
2023-03-13T12:21:16.379Z,2.90
2023-03-13T12:23:52.921Z,2.40
2023-03-13T12:26:25.430Z,2.00
2023-03-13T12:29:25.261Z,2.00
2023-03-13T12:31:52.963Z,2.20
2023-03-13T12:34:30.999Z,1.90
2023-03-13T12:37:06.849Z,2.00
2023-03-13T12:39:56.492Z,1.80
2023-03-13T12:42:44.166Z,1.70
2023-03-13T12:45:20.100Z,1.20
2023-03-13T12:48:02.215Z,1.60
2023-03-13T12:50:44.054Z,2.00
2023-03-13T12:56:17.588Z,1.70
2023-03-13T12:58:50.306Z,2.30
2023-03-13T13:01:49.974Z,2.00
2023-03-13T13:04:22.246Z,2.20
2023-03-13T13:07:07.154Z,2.10
2023-03-13T13:09:59.848Z,2.00
2023-03-13T13:12:27.777Z,2.30
2023-03-13T13:15:00.049Z,2.00
2023-03-13T13:17:34.537Z,2.10
2023-03-13T13:20:39.181Z,2.20
2023-03-13T13:23:27.661Z,2.50
2023-03-13T13:26:16.622Z,2.30
2023-03-13T13:28:44.356Z,1.70
2023-03-13T13:31:56.840Z,2.10
2023-03-13T13:37:29.055Z,1.70
2023-03-13T13:40:16.076Z,2.30
2023-03-13T13:42:47.682Z,2.00
2023-03-13T13:45:15.362Z,1.30
2023-03-13T13:47:48.480Z,1.90
2023-03-13T13:50:27.648Z,1.50
2023-03-13T13:53:30.319Z,1.30
2023-03-13T13:55:58.809Z,1.90
2023-03-13T13:58:30.506Z,1.60
2023-03-13T14:01:10.993Z,1.50
2023-03-13T14:03:42.285Z,2.00
2023-03-13T14:06:20.274Z,1.60
2023-03-13T14:08:51.455Z,1.80
2023-03-13T14:11:31.411Z,2.40
2023-03-13T14:14:11.072Z,1.60
2023-03-13T14:16:39.766Z,1.20
2023-03-13T14:19:22.521Z,1.40
2023-03-13T14:21:50.408Z,1.60
2023-03-13T14:24:18.252Z,1.90
2023-03-13T14:26:46.017Z,1.70
2023-03-13T14:29:25.887Z,1.90
2023-03-13T14:31:56.373Z,1.40
2023-03-13T14:34:24.757Z,1.50
2023-03-13T14:37:14.863Z,2.10
2023-03-13T14:39:46.192Z,2.00
2023-03-13T14:42:16.729Z,1.60
2023-03-13T14:44:48.670Z,1.90
2023-03-13T14:47:16.412Z,1.60
2023-03-13T14:49:47.094Z,1.50
2023-03-13T14:52:24.343Z,1.60
2023-03-13T14:55:07.877Z,2.20
2023-03-13T14:57:36.133Z,1.90
2023-03-13T15:00:35.026Z,1.40
2023-03-13T15:03:19.957Z,1.20
2023-03-13T15:05:50.664Z,0.90
2023-03-13T15:08:22.143Z,1.20
2023-03-13T15:10:50.589Z,1.90
2023-03-13T15:13:24.618Z,1.50
2023-03-13T15:15:52.974Z,1.50
2023-03-13T15:18:23.898Z,1.60
2023-03-13T15:20:57.866Z,1.30
2023-03-13T15:23:26.078Z,1.50
2023-03-13T15:25:53.981Z,1.30
2023-03-13T15:28:23.712Z,1.60
2023-03-13T15:30:52.349Z,1.10
2023-03-13T15:33:23.070Z,1.80
2023-03-13T15:35:51.206Z,1.60
2023-03-13T15:38:22.671Z,1.50
2023-03-13T15:40:50.525Z,1.60
2023-03-13T15:43:20.009Z,2.10
2023-03-13T15:48:28.264Z,1.80
2023-03-13T15:50:59.631Z,1.70
2023-03-13T15:53:28.770Z,1.40
2023-03-13T15:55:59.106Z,2.50
2023-03-13T15:58:28.786Z,2.00
2023-03-13T16:00:57.372Z,1.70
2023-03-13T16:03:28.295Z,1.70
2023-03-13T16:05:57.488Z,1.50
2023-03-13T16:08:37.345Z,1.50
2023-03-13T16:11:05.680Z,1.80
2023-03-13T16:13:33.544Z,1.70
2023-03-13T16:16:01.292Z,1.80
2023-03-13T16:18:29.263Z,1.80
2023-03-13T16:20:57.002Z,2.30
2023-03-13T16:23:25.089Z,2.20
2023-03-13T16:25:52.871Z,2.60
2023-03-13T16:28:20.629Z,2.00
2023-03-13T16:30:48.522Z,2.00
2023-03-13T16:33:16.428Z,1.70
2023-03-13T16:35:44.185Z,1.70
2023-03-13T16:38:12.139Z,2.10
2023-03-13T16:40:40.088Z,2.50
2023-03-13T16:43:11.470Z,1.50
2023-03-13T16:45:39.298Z,2.10
2023-03-13T16:48:07.216Z,2.40
2023-03-13T16:50:37.901Z,2.30
2023-03-13T16:53:05.776Z,2.50
2023-03-13T16:55:36.833Z,2.30
2023-03-13T16:58:05.226Z,2.00
2023-03-13T17:00:33.507Z,1.60
2023-03-13T17:03:01.503Z,2.20
2023-03-13T17:05:29.682Z,1.50
2023-03-13T17:07:57.635Z,2.00
2023-03-13T17:10:28.655Z,2.50
2023-03-13T17:12:56.431Z,2.10
2023-03-13T17:15:25.457Z,2.10
2023-03-13T17:17:54.283Z,2.60
2023-03-13T17:20:27.252Z,2.40
2023-03-13T17:22:56.784Z,2.40
2023-03-13T17:25:25.287Z,2.60
2023-03-13T17:27:53.469Z,2.80
2023-03-13T17:30:30.243Z,2.50
2023-03-13T17:32:59.137Z,3.00
2023-03-13T17:35:27.086Z,3.20
2023-03-13T17:37:54.971Z,2.40
2023-03-13T17:40:25.633Z,2.20
2023-03-13T17:42:53.490Z,2.30
2023-03-13T17:45:21.535Z,2.30
2023-03-13T17:47:50.278Z,2.00
2023-03-13T17:50:22.014Z,2.10
2023-03-13T17:52:50.342Z,2.30
2023-03-13T17:55:18.527Z,2.00
2023-03-13T17:57:48.282Z,2.20
2023-03-13T18:00:31.913Z,2.20
2023-03-13T18:02:59.997Z,2.20
2023-03-13T18:05:28.190Z,2.20
2023-03-13T18:07:57.179Z,1.90
2023-03-13T18:10:27.617Z,2.30
2023-03-13T18:12:55.961Z,2.60
2023-03-13T18:15:25.768Z,2.30
2023-03-13T18:17:54.032Z,2.40
2023-03-13T18:20:31.962Z,2.10
2023-03-13T18:23:00.739Z,2.10
2023-03-13T18:25:29.782Z,2.30
2023-03-13T18:27:58.679Z,2.50
2023-03-13T18:30:27.579Z,2.00
2023-03-13T18:32:56.385Z,2.30
2023-03-13T18:35:24.091Z,2.20
2023-03-13T18:37:51.798Z,2.30
2023-03-13T18:40:23.687Z,1.80
2023-03-13T18:42:51.923Z,2.00
2023-03-13T18:45:21.846Z,2.10
2023-03-13T18:47:49.812Z,1.90
2023-03-13T18:50:33.220Z,2.20
2023-03-13T18:53:01.283Z,2.30
2023-03-13T18:55:31.020Z,2.20
2023-03-13T18:57:58.782Z,2.60
2023-03-13T19:00:29.396Z,2.50
2023-03-13T19:02:57.897Z,2.30
2023-03-13T19:05:26.134Z,2.10
2023-03-13T19:07:53.955Z,2.60
2023-03-13T19:10:25.165Z,2.40
2023-03-13T19:12:55.017Z,2.60
2023-03-13T19:15:27.229Z,2.40
2023-03-13T19:17:56.187Z,2.80
2023-03-13T19:20:24.633Z,2.50
2023-03-13T19:22:54.434Z,2.30
2023-03-13T19:25:23.322Z,2.00
2023-03-13T19:27:51.074Z,2.70
2023-03-13T19:30:24.808Z,2.30
2023-03-13T19:32:52.991Z,2.60
2023-03-13T19:35:21.965Z,2.30
2023-03-13T19:37:50.233Z,2.50
2023-03-13T19:40:20.770Z,2.10
2023-03-13T19:42:48.838Z,2.00
2023-03-13T19:45:21.818Z,2.30
2023-03-13T19:47:50.353Z,2.60
2023-03-13T19:50:21.745Z,2.20
2023-03-13T19:52:49.664Z,2.30
2023-03-13T19:55:17.465Z,2.70
2023-03-13T19:57:45.668Z,2.30
2023-03-13T20:00:25.547Z,2.00
2023-03-13T20:02:55.178Z,2.40
2023-03-13T20:05:27.186Z,2.10
2023-03-13T20:07:55.368Z,2.30
2023-03-13T20:10:23.565Z,2.40
2023-03-13T20:12:53.555Z,2.40
2023-03-13T20:15:21.327Z,2.50
2023-03-13T20:17:49.136Z,2.70
2023-03-13T20:20:17.282Z,2.60
2023-03-13T20:22:44.967Z,2.40
2023-03-13T20:25:12.787Z,2.40
2023-03-13T20:27:40.630Z,2.20
2023-03-13T20:30:09.020Z,2.20
2023-03-13T20:32:39.408Z,2.40
2023-03-13T20:35:14.188Z,2.00
2023-03-13T20:37:42.271Z,2.60
2023-03-13T20:40:11.112Z,2.40
2023-03-13T20:42:39.372Z,1.80
2023-03-13T20:45:10.812Z,2.30
2023-03-13T20:47:38.579Z,2.20
2023-03-13T20:50:07.674Z,2.60
2023-03-13T20:52:35.439Z,2.30
2023-03-13T20:55:03.481Z,2.20
2023-03-13T20:57:31.263Z,2.70
2023-03-13T20:59:58.973Z,2.40
2023-03-13T21:02:26.710Z,2.00
2023-03-13T21:04:54.476Z,2.30
2023-03-13T21:07:22.296Z,2.90
2023-03-13T21:09:50.083Z,2.90
2023-03-13T21:12:17.846Z,2.60
2023-03-13T21:14:46.365Z,2.30
2023-03-13T21:17:15.810Z,2.40
2023-03-13T21:22:11.618Z,2.40
2023-03-13T21:24:39.776Z,2.20
2023-03-13T21:27:07.601Z,2.70
2023-03-13T21:29:35.319Z,2.60
2023-03-13T21:32:03.076Z,3.10
2023-03-13T21:34:30.960Z,2.70
2023-03-13T21:36:58.701Z,2.30
2023-03-13T21:39:26.470Z,2.00
2023-03-13T21:41:54.371Z,3.10
2023-03-13T21:44:22.273Z,3.10
2023-03-13T21:46:51.759Z,2.60
2023-03-13T21:51:47.358Z,2.50
2023-03-13T21:54:15.056Z,2.40
2023-03-13T21:56:42.955Z,2.40
2023-03-13T21:59:10.640Z,3.30
2023-03-13T22:01:38.415Z,2.90
2023-03-13T22:04:06.189Z,2.70
2023-03-13T22:06:34.303Z,2.70
2023-03-13T22:09:03.942Z,3.20
2023-03-13T22:11:32.380Z,3.10
2023-03-13T22:14:00.401Z,3.60
2023-03-13T22:16:28.327Z,3.10
2023-03-13T22:18:56.193Z,3.70
2023-03-13T22:21:24.231Z,3.20
2023-03-13T22:23:52.081Z,3.10
2023-03-13T22:26:19.849Z,3.60
2023-03-13T22:28:47.561Z,2.50
2023-03-13T22:31:15.269Z,3.30
2023-03-13T22:33:43.174Z,2.70
2023-03-13T22:36:11.249Z,2.60
2023-03-13T22:38:39.933Z,2.80
2023-03-13T22:41:11.220Z,2.90
2023-03-13T22:43:39.206Z,3.00
2023-03-13T22:46:07.452Z,2.90
2023-03-13T22:48:36.194Z,2.60
2023-03-13T22:51:08.560Z,2.80
2023-03-13T22:53:38.859Z,2.70
2023-03-13T22:56:09.954Z,3.10
2023-03-13T22:58:39.186Z,2.70
2023-03-13T23:01:09.106Z,2.50
2023-03-13T23:03:36.957Z,3.20
2023-03-13T23:06:07.046Z,3.30
2023-03-13T23:08:35.232Z,3.20
2023-03-13T23:11:03.869Z,3.30
2023-03-13T23:13:32.709Z,2.70
2023-03-13T23:16:00.460Z,3.00
2023-03-13T23:18:28.312Z,2.50
2023-03-13T23:20:56.186Z,3.50
2023-03-13T23:23:24.288Z,2.60
2023-03-13T23:25:52.008Z,3.10
2023-03-13T23:28:19.732Z,3.10
2023-03-13T23:30:47.440Z,2.60
2023-03-13T23:33:15.252Z,3.10
2023-03-13T23:35:43.985Z,2.60
2023-03-13T23:38:12.606Z,2.40
2023-03-13T23:40:40.404Z,2.80
2023-03-13T23:43:08.074Z,3.60
2023-03-13T23:45:38.057Z,3.20
2023-03-13T23:48:06.085Z,3.00
2023-03-13T23:50:33.899Z,2.80
2023-03-13T23:53:01.616Z,3.20
2023-03-13T23:55:29.380Z,3.50
2023-03-13T23:57:57.072Z,3.20
